Time;durP1;ratioP1;P1;durP2;ratioP2;P2;SDS_P1;SDS_P2;PMS_P1;PMS_P2;Temp;Humidity;BMP_temperature;BMP_pressure;BME280_temperature;BME280_humidity;BME280_pressure;Samples;Min_cycle;Max_cycle;Signal;HPM_P1;HPM_P2
2023/03/22 00:01:31;;;;;;;20.80;10.68;;;;;;;;;;5073862;28;20103;-74
2023/03/22 00:03:57;;;;;;;17.55;9.98;;;;;;;;;;5053845;28;20163;-73
2023/03/22 00:06:23;;;;;;;18.27;10.43;;;;;;;;;;5072837;28;20044;-74
2023/03/22 00:08:50;;;;;;;16.17;9.10;;;;;;;;;;5073656;28;20071;-73
2023/03/22 00:11:17;;;;;;;16.33;9.90;;;;;;;;;;5056486;28;20088;-73
2023/03/22 00:13:45;;;;;;;18.80;10.82;;;;;;;;;;5056226;28;20470;-74
2023/03/22 00:16:12;;;;;;;19.00;10.93;;;;;;;;;;5074383;28;20504;-74
2023/03/22 00:18:38;;;;;;;16.35;11.07;;;;;;;;;;5073924;28;20052;-74
2023/03/22 00:21:04;;;;;;;17.77;10.40;;;;;;;;;;5073998;28;20032;-74
2023/03/22 00:23:30;;;;;;;21.83;10.50;;;;;;;;;;5073776;28;20071;-74
2023/03/22 00:25:56;;;;;;;13.32;9.57;;;;;;;;;;5073841;28;20142;-74
2023/03/22 00:28:23;;;;;;;19.33;10.45;;;;;;;;;;5073803;28;20059;-74
2023/03/22 00:30:54;;;;;;;18.13;9.73;;;;;;;;;;5055954;28;20127;-74
2023/03/22 00:33:20;;;;;;;15.23;8.82;;;;;;;;;;5073650;28;20044;-74
2023/03/22 00:35:50;;;;;;;20.13;9.57;;;;;;;;;;5073694;28;20041;-74
2023/03/22 00:38:16;;;;;;;16.33;8.63;;;;;;;;;;5061367;28;20135;-74
2023/03/22 00:40:42;;;;;;;16.45;9.50;;;;;;;;;;5035548;28;20087;-74
2023/03/22 00:43:08;;;;;;;16.75;8.80;;;;;;;;;;5053323;28;20151;-74
2023/03/22 00:45:39;;;;;;;14.63;7.15;;;;;;;;;;5035593;28;20049;-74
2023/03/22 00:48:06;;;;;;;13.68;7.60;;;;;;;;;;5053599;28;20103;-74
2023/03/22 00:50:32;;;;;;;17.13;8.02;;;;;;;;;;5053484;28;20041;-74
2023/03/22 00:52:58;;;;;;;14.45;7.45;;;;;;;;;;5053353;28;20123;-74
2023/03/22 00:55:24;;;;;;;14.27;6.93;;;;;;;;;;5053288;28;20383;-74
2023/03/22 00:57:50;;;;;;;13.90;6.65;;;;;;;;;;5053580;28;20052;-75
2023/03/22 01:00:16;;;;;;;15.70;7.50;;;;;;;;;;5035482;28;20057;-74
2023/03/22 01:02:43;;;;;;;13.48;6.20;;;;;;;;;;5035017;28;20060;-74
2023/03/22 01:05:14;;;;;;;13.43;6.65;;;;;;;;;;5035245;28;20052;-74
2023/03/22 01:07:42;;;;;;;14.18;5.97;;;;;;;;;;5053163;28;20085;-74
2023/03/22 01:10:08;;;;;;;12.73;5.72;;;;;;;;;;5052832;28;20053;-74
2023/03/22 01:12:34;;;;;;;12.07;5.88;;;;;;;;;;5052865;28;20045;-74
2023/03/22 01:15:00;;;;;;;11.25;6.03;;;;;;;;;;5052604;28;20063;-74
2023/03/22 01:17:26;;;;;;;11.75;6.03;;;;;;;;;;5052421;28;20056;-74
2023/03/22 01:19:52;;;;;;;12.38;5.70;;;;;;;;;;5052138;28;20166;-73
2023/03/22 01:22:18;;;;;;;13.32;5.50;;;;;;;;;;5018454;28;20048;-74
2023/03/22 01:24:44;;;;;;;10.18;4.90;;;;;;;;;;5052667;28;20044;-74
2023/03/22 01:27:10;;;;;;;13.75;5.00;;;;;;;;;;5051336;28;20565;-74
2023/03/22 01:29:36;;;;;;;12.55;4.68;;;;;;;;;;5018179;28;20055;-74
2023/03/22 01:32:03;;;;;;;8.35;4.07;;;;;;;;;;5052925;28;20049;-74
2023/03/22 01:34:30;;;;;;;11.15;4.53;;;;;;;;;;5052517;28;20056;-74
2023/03/22 01:36:56;;;;;;;10.68;4.00;;;;;;;;;;5052714;28;20088;-74
2023/03/22 01:39:22;;;;;;;9.13;3.88;;;;;;;;;;5052329;28;20044;-74
2023/03/22 01:41:48;;;;;;;11.23;3.97;;;;;;;;;;5034760;28;20068;-74
2023/03/22 01:44:15;;;;;;;12.30;4.07;;;;;;;;;;5034326;28;20049;-74
2023/03/22 01:46:42;;;;;;;14.90;4.15;;;;;;;;;;5034787;28;20131;-74
2023/03/22 01:49:12;;;;;;;10.50;3.80;;;;;;;;;;5052263;28;20041;-74
2023/03/22 01:51:38;;;;;;;12.82;3.72;;;;;;;;;;5034665;28;20052;-74
2023/03/22 01:54:16;;;;;;;11.50;3.20;;;;;;;;;;5052071;28;20056;-75
2023/03/22 01:56:42;;;;;;;9.63;3.50;;;;;;;;;;5032557;28;20052;-74
2023/03/22 01:59:10;;;;;;;10.32;3.40;;;;;;;;;;5034507;28;20446;-74
2023/03/22 02:01:36;;;;;;;10.02;2.97;;;;;;;;;;5034574;28;20048;-74
2023/03/22 02:04:05;;;;;;;10.25;3.17;;;;;;;;;;5051979;28;20047;-74
2023/03/22 02:06:36;;;;;;;7.90;3.00;;;;;;;;;;5052272;28;20045;-74
2023/03/22 02:09:03;;;;;;;10.00;3.22;;;;;;;;;;5032276;28;20128;-74
2023/03/22 02:11:37;;;;;;;10.80;3.08;;;;;;;;;;5052405;28;20438;-74
2023/03/22 02:14:24;;;;;;;9.95;2.80;;;;;;;;;;5033878;28;20037;-74
2023/03/22 02:17:09;;;;;;;12.23;2.88;;;;;;;;;;5034766;28;20127;-74
2023/03/22 02:19:53;;;;;;;11.20;2.72;;;;;;;;;;5033875;28;20037;-74
2023/03/22 02:22:38;;;;;;;11.32;3.00;;;;;;;;;;5052019;28;20047;-74
2023/03/22 02:25:22;;;;;;;9.10;3.20;;;;;;;;;;5050533;28;20072;-74
2023/03/22 02:27:58;;;;;;;13.45;2.90;;;;;;;;;;5055726;28;20048;-74
2023/03/22 02:30:30;;;;;;;8.15;2.60;;;;;;;;;;5038119;28;20048;-73
2023/03/22 02:33:04;;;;;;;11.90;3.22;;;;;;;;;;5038521;28;20354;-74
2023/03/22 02:35:48;;;;;;;10.68;2.92;;;;;;;;;;5038220;28;20478;-74
2023/03/22 02:38:20;;;;;;;9.45;2.90;;;;;;;;;;5037849;28;20041;-74
2023/03/22 02:40:46;;;;;;;12.77;2.55;;;;;;;;;;5055964;28;20044;-74
2023/03/22 02:43:33;;;;;;;9.48;2.60;;;;;;;;;;5055695;28;20441;-74
2023/03/22 02:46:02;;;;;;;11.23;2.80;;;;;;;;;;5054540;28;20132;-74
2023/03/22 02:48:32;;;;;;;10.55;2.70;;;;;;;;;;5066532;28;20040;-74
2023/03/22 02:51:04;;;;;;;10.98;2.45;;;;;;;;;;5052978;28;20049;-73
2023/03/22 02:53:34;;;;;;;7.88;2.42;;;;;;;;;;5037472;28;20052;-74
2023/03/22 02:56:15;;;;;;;9.13;2.60;;;;;;;;;;5055089;28;20037;-74
2023/03/22 02:58:46;;;;;;;10.07;2.30;;;;;;;;;;5054897;28;20052;-74
2023/03/22 03:01:32;;;;;;;10.45;2.40;;;;;;;;;;5055488;28;20044;-74
2023/03/22 03:03:58;;;;;;;;;;;;;;;;;;5044864;28;20056;-74
2023/03/22 03:06:27;;;;;;;10.98;2.50;;;;;;;;;;5055556;28;19925;-74
2023/03/22 03:08:56;;;;;;;10.73;2.58;;;;;;;;;;5037089;28;20102;-74
2023/03/22 03:11:23;;;;;;;11.07;2.55;;;;;;;;;;5021131;28;20061;-74
2023/03/22 03:13:49;;;;;;;11.57;2.38;;;;;;;;;;5055174;28;20041;-74
2023/03/22 03:16:19;;;;;;;11.55;3.20;;;;;;;;;;5037692;28;20037;-74
2023/03/22 03:18:48;;;;;;;10.40;2.70;;;;;;;;;;5037699;28;20343;-74
2023/03/22 03:21:24;;;;;;;10.23;2.90;;;;;;;;;;5037229;28;20132;-74
2023/03/22 03:24:02;;;;;;;9.18;2.30;;;;;;;;;;5037098;28;20511;-74
2023/03/22 03:26:37;;;;;;;12.90;2.55;;;;;;;;;;5055133;28;20045;-74
2023/03/22 03:29:03;;;;;;;9.73;2.33;;;;;;;;;;5055061;28;20076;-74
2023/03/22 03:31:35;;;;;;;10.77;2.50;;;;;;;;;;5054591;28;20111;-74
2023/03/22 03:34:13;;;;;;;9.77;2.63;;;;;;;;;;5035212;28;20099;-74
2023/03/22 03:36:41;;;;;;;9.45;2.58;;;;;;;;;;5052916;28;20147;-74
2023/03/22 03:39:11;;;;;;;8.07;2.75;;;;;;;;;;5052049;28;20080;-74
2023/03/22 03:41:38;;;;;;;15.88;2.72;;;;;;;;;;5054573;28;20053;-74
2023/03/22 03:44:05;;;;;;;11.82;3.08;;;;;;;;;;5054664;28;20037;-74
2023/03/22 03:46:31;;;;;;;9.48;2.70;;;;;;;;;;5055049;28;20045;-74
2023/03/22 03:48:57;;;;;;;13.57;2.97;;;;;;;;;;5054464;28;20132;-74
2023/03/22 03:51:25;;;;;;;16.38;3.20;;;;;;;;;;5054648;28;20124;-73
2023/03/22 03:53:51;;;;;;;14.27;3.10;;;;;;;;;;5034759;28;20044;-74
2023/03/22 03:56:17;;;;;;;8.27;2.45;;;;;;;;;;5054715;28;20463;-75
2023/03/22 03:58:43;;;;;;;14.05;3.20;;;;;;;;;;5054480;28;20128;-74
2023/03/22 04:01:09;;;;;;;15.80;2.83;;;;;;;;;;5054423;28;20137;-74
2023/03/22 04:03:36;;;;;;;9.50;3.45;;;;;;;;;;5054273;28;20106;-74
2023/03/22 04:06:02;;;;;;;10.98;3.00;;;;;;;;;;5036407;28;20052;-74
2023/03/22 04:08:28;;;;;;;9.60;2.60;;;;;;;;;;5036235;28;20114;-75
2023/03/22 04:10:54;;;;;;;11.57;2.72;;;;;;;;;;5054037;28;20049;-74
2023/03/22 04:13:20;;;;;;;13.48;3.20;;;;;;;;;;5054241;28;20056;-74
2023/03/22 04:15:47;;;;;;;8.85;2.80;;;;;;;;;;5019878;28;20131;-74
2023/03/22 04:18:13;;;;;;;14.60;3.08;;;;;;;;;;5036393;28;20083;-74
2023/03/22 04:20:40;;;;;;;9.13;2.80;;;;;;;;;;5036060;28;20045;-74
2023/03/22 04:23:09;;;;;;;11.48;3.00;;;;;;;;;;5053825;28;20064;-74
2023/03/22 04:25:36;;;;;;;9.52;3.08;;;;;;;;;;5053809;28;20052;-74
2023/03/22 04:28:03;;;;;;;8.68;3.00;;;;;;;;;;5035985;28;20056;-74
2023/03/22 04:30:29;;;;;;;6.95;2.80;;;;;;;;;;5053916;28;20091;-74
2023/03/22 04:32:55;;;;;;;13.02;3.70;;;;;;;;;;5053643;28;20041;-74
2023/03/22 04:35:21;;;;;;;13.10;3.58;;;;;;;;;;5035962;28;20069;-74
2023/03/22 04:37:48;;;;;;;7.65;3.20;;;;;;;;;;5038426;28;20852;-74
2023/03/22 04:40:19;;;;;;;9.85;3.22;;;;;;;;;;5053424;28;20037;-74
2023/03/22 04:42:46;;;;;;;9.55;3.20;;;;;;;;;;5053198;28;20053;-74
2023/03/22 04:45:12;;;;;;;10.10;3.35;;;;;;;;;;5051523;28;20052;-74
2023/03/22 04:47:38;;;;;;;10.60;3.90;;;;;;;;;;5035574;28;20053;-74
2023/03/22 04:50:05;;;;;;;11.27;4.05;;;;;;;;;;5052699;28;20044;-74
2023/03/22 04:52:31;;;;;;;12.18;4.53;;;;;;;;;;5035369;28;20049;-74
2023/03/22 04:54:57;;;;;;;10.10;4.30;;;;;;;;;;5053326;28;20091;-74
2023/03/22 04:57:23;;;;;;;12.48;4.55;;;;;;;;;;5035573;28;20060;-74
2023/03/22 04:59:49;;;;;;;13.70;4.68;;;;;;;;;;5035587;28;20401;-74
2023/03/22 05:02:16;;;;;;;10.50;5.00;;;;;;;;;;5035212;28;20054;-74
2023/03/22 05:04:42;;;;;;;12.75;4.95;;;;;;;;;;5035351;28;20140;-74
2023/03/22 05:07:08;;;;;;;11.65;5.47;;;;;;;;;;5053468;28;20080;-74
2023/03/22 05:09:34;;;;;;;14.10;5.82;;;;;;;;;;5034765;28;20088;-74
2023/03/22 05:12:00;;;;;;;13.48;5.88;;;;;;;;;;5035485;28;20049;-74
2023/03/22 05:14:26;;;;;;;12.18;5.43;;;;;;;;;;5018545;28;20049;-74
2023/03/22 05:16:52;;;;;;;14.85;5.97;;;;;;;;;;5018807;28;20049;-74
2023/03/22 05:19:21;;;;;;;11.57;5.88;;;;;;;;;;5052762;28;20071;-74
2023/03/22 05:21:47;;;;;;;11.68;5.88;;;;;;;;;;5052650;28;20494;-74
2023/03/22 05:24:13;;;;;;;13.43;6.38;;;;;;;;;;5052519;28;20079;-74
2023/03/22 05:26:42;;;;;;;15.95;6.68;;;;;;;;;;5035046;28;20071;-74
2023/03/22 05:29:09;;;;;;;16.83;7.00;;;;;;;;;;5034481;28;20048;-74
2023/03/22 05:31:35;;;;;;;11.63;6.78;;;;;;;;;;5052967;28;20090;-75
2023/03/22 05:34:02;;;;;;;11.73;6.90;;;;;;;;;;5052317;28;20073;-74
2023/03/22 05:36:31;;;;;;;13.38;7.15;;;;;;;;;;5033547;28;20053;-74
2023/03/22 05:38:57;;;;;;;16.02;8.07;;;;;;;;;;5034829;28;20040;-74
2023/03/22 05:41:23;;;;;;;13.50;7.68;;;;;;;;;;5054624;28;20485;-74
2023/03/22 05:43:49;;;;;;;15.95;7.97;;;;;;;;;;5072225;28;20041;-74
2023/03/22 05:46:16;;;;;;;14.05;8.10;;;;;;;;;;5054867;28;20485;-74
2023/03/22 05:48:42;;;;;;;18.13;8.23;;;;;;;;;;5072356;28;20044;-74
2023/03/22 05:51:09;;;;;;;15.38;8.85;;;;;;;;;;5054160;28;20131;-74
2023/03/22 05:53:35;;;;;;;15.82;8.48;;;;;;;;;;5037456;28;20044;-74
2023/03/22 05:56:01;;;;;;;18.45;9.43;;;;;;;;;;5054384;28;20135;-74
2023/03/22 05:58:29;;;;;;;18.00;8.90;;;;;;;;;;5037577;28;20044;-74
2023/03/22 06:00:59;;;;;;;20.95;9.30;;;;;;;;;;5053888;28;20127;-74
2023/03/22 06:03:25;;;;;;;15.50;8.63;;;;;;;;;;5037187;28;20044;-75
2023/03/22 06:05:53;;;;;;;18.27;9.57;;;;;;;;;;5054310;28;20424;-74
2023/03/22 06:08:19;;;;;;;18.60;8.73;;;;;;;;;;5071813;28;20416;-75
2023/03/22 06:10:48;;;;;;;17.90;9.07;;;;;;;;;;5071985;28;20056;-74
2023/03/22 06:13:14;;;;;;;16.83;9.20;;;;;;;;;;5054019;28;20166;-75
2023/03/22 06:15:40;;;;;;;14.77;9.80;;;;;;;;;;5037478;28;20102;-75
2023/03/22 06:18:06;;;;;;;16.67;9.60;;;;;;;;;;5071968;28;20512;-74
2023/03/22 06:20:34;;;;;;;17.88;9.77;;;;;;;;;;5072069;28;20170;-75
2023/03/22 06:23:00;;;;;;;15.02;9.27;;;;;;;;;;5071666;28;20511;-75
2023/03/22 06:25:26;;;;;;;16.98;9.93;;;;;;;;;;5072074;28;20045;-75
2023/03/22 06:27:52;;;;;;;18.10;9.57;;;;;;;;;;5072502;28;20044;-74
2023/03/22 06:30:18;;;;;;;17.85;9.70;;;;;;;;;;5071809;28;20509;-74
2023/03/22 06:32:44;;;;;;;17.38;9.75;;;;;;;;;;5037512;28;20106;-74
2023/03/22 06:35:10;;;;;;;16.33;9.60;;;;;;;;;;5071917;28;20053;-74
2023/03/22 06:37:36;;;;;;;17.33;10.40;;;;;;;;;;5064974;28;20045;-74
2023/03/22 06:40:03;;;;;;;18.10;10.55;;;;;;;;;;5051527;28;20072;-74
2023/03/22 06:42:32;;;;;;;18.63;10.27;;;;;;;;;;5051542;28;20045;-75
2023/03/22 06:44:58;;;;;;;16.48;10.77;;;;;;;;;;5051709;28;20048;-74
2023/03/22 06:47:25;;;;;;;17.80;10.65;;;;;;;;;;5051913;28;20041;-74
2023/03/22 06:49:51;;;;;;;19.48;10.68;;;;;;;;;;5033923;28;20045;-74
2023/03/22 06:52:17;;;;;;;15.25;10.38;;;;;;;;;;5016988;28;20040;-75
2023/03/22 06:54:43;;;;;;;17.77;10.23;;;;;;;;;;5051516;28;20041;-75
2023/03/22 06:57:09;;;;;;;19.42;10.70;;;;;;;;;;5034052;28;20071;-74
2023/03/22 06:59:35;;;;;;;16.60;9.80;;;;;;;;;;5051407;28;20052;-74
2023/03/22 07:02:01;;;;;;;18.85;10.23;;;;;;;;;;5051400;28;20079;-75
2023/03/22 07:04:27;;;;;;;19.80;10.77;;;;;;;;;;5049886;28;20041;-76
2023/03/22 07:06:54;;;;;;;17.02;9.43;;;;;;;;;;5049685;28;20067;-73
2023/03/22 07:09:22;;;;;;;19.88;10.55;;;;;;;;;;5016464;28;20045;-74
2023/03/22 07:11:49;;;;;;;16.73;9.55;;;;;;;;;;5034480;28;20440;-74
2023/03/22 07:14:15;;;;;;;17.52;9.50;;;;;;;;;;5020526;28;20045;-74
2023/03/22 07:16:41;;;;;;;17.77;9.95;;;;;;;;;;5037438;28;20140;-74
2023/03/22 07:19:07;;;;;;;16.92;9.77;;;;;;;;;;5054786;28;20136;-75
2023/03/22 07:21:33;;;;;;;14.10;9.00;;;;;;;;;;5036801;28;20444;-74
2023/03/22 07:23:59;;;;;;;19.77;9.63;;;;;;;;;;5036677;28;20087;-75
2023/03/22 07:26:25;;;;;;;18.23;8.70;;;;;;;;;;5055084;28;20103;-74
2023/03/22 07:28:52;;;;;;;13.43;8.38;;;;;;;;;;5036567;28;20079;-75
2023/03/22 07:31:18;;;;;;;13.50;8.55;;;;;;;;;;5020202;28;20086;-74
2023/03/22 07:33:44;;;;;;;16.65;9.25;;;;;;;;;;5054585;28;20127;-74
2023/03/22 07:36:10;;;;;;;14.73;8.70;;;;;;;;;;5054486;28;20052;-74
2023/03/22 07:38:36;;;;;;;18.15;9.00;;;;;;;;;;5067225;28;20059;-75
2023/03/22 07:41:02;;;;;;;15.55;9.23;;;;;;;;;;5056276;28;20131;-75
2023/03/22 07:43:29;;;;;;;22.02;8.77;;;;;;;;;;5056407;28;20044;-75
2023/03/22 07:45:55;;;;;;;15.90;8.60;;;;;;;;;;5055997;28;20052;-75
2023/03/22 07:48:22;;;;;;;15.25;8.35;;;;;;;;;;5074099;28;20047;-75
2023/03/22 07:50:48;;;;;;;18.35;8.50;;;;;;;;;;5074153;28;20045;-75
2023/03/22 07:53:14;;;;;;;15.27;8.07;;;;;;;;;;5055860;28;20086;-75
2023/03/22 07:55:43;;;;;;;15.43;7.80;;;;;;;;;;5074159;28;20044;-75
2023/03/22 07:58:09;;;;;;;16.95;8.10;;;;;;;;;;5074454;28;20397;-74
2023/03/22 08:00:35;;;;;;;14.98;7.63;;;;;;;;;;5058914;28;20075;-75
2023/03/22 08:03:01;;;;;;;15.98;8.00;;;;;;;;;;5035640;28;20497;-75
2023/03/22 08:05:27;;;;;;;15.90;7.35;;;;;;;;;;5052488;28;20124;-75
2023/03/22 08:07:55;;;;;;;15.90;7.15;;;;;;;;;;5035836;28;20480;-75
2023/03/22 08:10:21;;;;;;;12.90;6.95;;;;;;;;;;5018627;28;20053;-75
2023/03/22 08:12:47;;;;;;;13.50;7.55;;;;;;;;;;5052087;28;20124;-77
2023/03/22 08:15:13;;;;;;;13.32;7.20;;;;;;;;;;5035999;28;20045;-74
2023/03/22 08:17:39;;;;;;;13.10;7.00;;;;;;;;;;5035828;28;20053;-74
2023/03/22 08:20:07;;;;;;;12.40;6.57;;;;;;;;;;5035553;28;20548;-74
2023/03/22 08:22:35;;;;;;;16.58;6.28;;;;;;;;;;5053439;28;20096;-74
2023/03/22 08:25:01;;;;;;;14.00;6.45;;;;;;;;;;5018322;28;20056;-75
2023/03/22 08:27:27;;;;;;;13.85;6.72;;;;;;;;;;5053727;28;20067;-75
2023/03/22 08:29:53;;;;;;;13.50;6.30;;;;;;;;;;5035872;28;20047;-74
2023/03/22 08:32:19;;;;;;;14.75;6.07;;;;;;;;;;5053624;28;20041;-75
2023/03/22 08:34:45;;;;;;;15.63;6.40;;;;;;;;;;5035582;28;20044;-75
2023/03/22 08:37:12;;;;;;;12.27;6.00;;;;;;;;;;5038844;28;20465;-75
2023/03/22 08:39:38;;;;;;;12.65;5.95;;;;;;;;;;5073002;28;20101;-75
2023/03/22 08:42:04;;;;;;;14.73;6.07;;;;;;;;;;5038735;28;20091;-75
2023/03/22 08:44:30;;;;;;;11.80;6.35;;;;;;;;;;5055287;28;20048;-75
2023/03/22 08:46:57;;;;;;;15.15;6.03;;;;;;;;;;5073390;28;20408;-73
2023/03/22 08:49:23;;;;;;;11.35;5.43;;;;;;;;;;5072755;28;20045;-75
2023/03/22 08:51:49;;;;;;;12.68;5.38;;;;;;;;;;5055409;28;20048;-74
2023/03/22 08:54:15;;;;;;;12.18;5.28;;;;;;;;;;5054714;28;20045;-75
2023/03/22 08:56:41;;;;;;;10.60;4.95;;;;;;;;;;5053299;28;20095;-75
2023/03/22 08:59:08;;;;;;;11.40;5.03;;;;;;;;;;5052937;28;20083;-75
2023/03/22 09:01:35;;;;;;;14.50;5.07;;;;;;;;;;5038201;28;20040;-74
2023/03/22 09:04:01;;;;;;;15.60;5.20;;;;;;;;;;5054377;28;20075;-74
2023/03/22 09:06:27;;;;;;;17.85;6.05;;;;;;;;;;5055287;28;20081;-75
2023/03/22 09:08:54;;;;;;;13.13;5.28;;;;;;;;;;5072210;28;20052;-76
2023/03/22 09:11:20;;;;;;;10.63;5.15;;;;;;;;;;5072935;28;20049;-75
2023/03/22 09:13:47;;;;;;;10.48;5.22;;;;;;;;;;5072481;28;20044;-75
2023/03/22 09:16:13;;;;;;;14.65;5.40;;;;;;;;;;5072774;28;20052;-75
2023/03/22 09:18:40;;;;;;;10.82;4.85;;;;;;;;;;5054985;28;20511;-75
2023/03/22 09:21:07;;;;;;;11.25;4.50;;;;;;;;;;5054674;28;20098;-75
2023/03/22 09:23:34;;;;;;;12.50;4.80;;;;;;;;;;5037904;28;20048;-75
2023/03/22 09:26:01;;;;;;;14.63;4.78;;;;;;;;;;5072395;28;20434;-75
2023/03/22 09:28:27;;;;;;;14.80;4.50;;;;;;;;;;5072749;28;20098;-75
2023/03/22 09:30:53;;;;;;;10.60;4.22;;;;;;;;;;5054558;28;20405;-75
2023/03/22 09:33:19;;;;;;;12.18;4.85;;;;;;;;;;5054391;28;20157;-74
2023/03/22 09:35:45;;;;;;;13.18;4.63;;;;;;;;;;5054339;28;20193;-75
2023/03/22 09:38:12;;;;;;;14.23;4.35;;;;;;;;;;5060756;28;20168;-75
2023/03/22 09:41:01;;;;;;;11.07;4.85;;;;;;;;;;5034122;28;20087;-75
2023/03/22 09:43:30;;;;;;;10.90;4.60;;;;;;;;;;5052234;28;20041;-76
2023/03/22 09:45:56;;;;;;;13.27;4.32;;;;;;;;;;5052289;28;20052;-75
2023/03/22 09:48:27;;;;;;;10.27;4.68;;;;;;;;;;5051889;28;20482;-75
2023/03/22 09:50:53;;;;;;;12.68;4.47;;;;;;;;;;5052087;28;20451;-75
2023/03/22 09:53:20;;;;;;;12.77;4.53;;;;;;;;;;5034375;28;20049;-75
2023/03/22 09:55:55;;;;;;;14.75;4.53;;;;;;;;;;5034364;28;20059;-75
2023/03/22 09:58:21;;;;;;;12.02;4.35;;;;;;;;;;5034254;28;20041;-75
2023/03/22 10:00:50;;;;;;;12.80;4.32;;;;;;;;;;5052065;28;20064;-75
2023/03/22 10:03:16;;;;;;;14.20;4.97;;;;;;;;;;5051870;28;20040;-75
2023/03/22 10:05:45;;;;;;;11.45;4.50;;;;;;;;;;5017894;28;20441;-75
2023/03/22 10:08:20;;;;;;;14.55;4.72;;;;;;;;;;5052118;28;20457;-75
2023/03/22 10:10:46;;;;;;;10.32;4.60;;;;;;;;;;5034032;28;20083;-75
2023/03/22 10:13:14;;;;;;;11.02;4.97;;;;;;;;;;5050461;28;20049;-75
2023/03/22 10:15:52;;;;;;;13.82;4.57;;;;;;;;;;5050664;28;20049;-75
2023/03/22 10:18:20;;;;;;;16.15;5.65;;;;;;;;;;5051931;28;20095;-75
2023/03/22 10:20:49;;;;;;;13.35;4.78;;;;;;;;;;5034181;28;20041;-75
2023/03/22 10:23:19;;;;;;;10.77;4.70;;;;;;;;;;5033658;28;20091;-76
2023/03/22 10:25:45;;;;;;;13.85;5.47;;;;;;;;;;5051950;28;20040;-76
2023/03/22 10:28:21;;;;;;;10.70;4.65;;;;;;;;;;5051974;28;20057;-75
2023/03/22 10:30:52;;;;;;;14.15;5.65;;;;;;;;;;5031788;28;20107;-76
2023/03/22 10:33:38;;;;;;;12.75;4.95;;;;;;;;;;5051852;28;20041;-76
2023/03/22 10:36:07;;;;;;;9.80;4.75;;;;;;;;;;5051642;28;20045;-76
2023/03/22 10:38:34;;;;;;;11.40;5.32;;;;;;;;;;5047896;28;20123;-76
2023/03/22 10:41:01;;;;;;;12.32;5.22;;;;;;;;;;5052870;28;20045;-75
2023/03/22 10:43:32;;;;;;;12.05;5.47;;;;;;;;;;5068999;28;20049;-76
2023/03/22 10:45:58;;;;;;;11.23;5.20;;;;;;;;;;5051379;28;20049;-76
2023/03/22 10:48:33;;;;;;;12.45;5.35;;;;;;;;;;5075143;28;20048;-75
2023/03/22 10:50:59;;;;;;;12.50;5.57;;;;;;;;;;5057615;28;20507;-76
2023/03/22 10:53:25;;;;;;;15.27;5.57;;;;;;;;;;5075282;28;20052;-76
2023/03/22 10:55:52;;;;;;;11.38;5.40;;;;;;;;;;5075303;28;20395;-76
2023/03/22 10:58:19;;;;;;;13.50;5.90;;;;;;;;;;5075139;28;20045;-75
2023/03/22 11:00:47;;;;;;;23.58;5.90;;;;;;;;;;5075359;28;20128;-75
2023/03/22 11:03:24;;;;;;;11.40;5.47;;;;;;;;;;5075068;28;20150;-76
2023/03/22 11:06:00;;;;;;;15.73;6.60;;;;;;;;;;5074200;28;20481;-75
2023/03/22 11:08:26;;;;;;;11.63;6.13;;;;;;;;;;5074755;28;20493;-76
2023/03/22 11:10:54;;;;;;;13.02;6.10;;;;;;;;;;5056850;28;20044;-75
2023/03/22 11:13:21;;;;;;;11.70;6.07;;;;;;;;;;5057132;28;20049;-75
2023/03/22 11:15:51;;;;;;;12.02;6.03;;;;;;;;;;5040529;28;20044;-75
2023/03/22 11:18:17;;;;;;;11.52;6.13;;;;;;;;;;5056876;28;20040;-75
2023/03/22 11:20:52;;;;;;;11.52;5.93;;;;;;;;;;5055590;28;20040;-75
2023/03/22 11:23:19;;;;;;;13.38;5.55;;;;;;;;;;5072806;28;20153;-75
2023/03/22 11:25:46;;;;;;;15.75;6.13;;;;;;;;;;5074665;28;20436;-76
2023/03/22 11:28:18;;;;;;;14.18;6.13;;;;;;;;;;5074887;28;20412;-75
2023/03/22 11:30:58;;;;;;;13.88;6.68;;;;;;;;;;5074548;28;20040;-75
2023/03/22 11:33:24;;;;;;;12.18;5.90;;;;;;;;;;5074333;28;20047;-75
2023/03/22 11:35:58;;;;;;;14.18;6.35;;;;;;;;;;5056516;28;20098;-75
2023/03/22 11:38:28;;;;;;;11.52;6.38;;;;;;;;;;5043081;28;20075;-75
2023/03/22 11:41:02;;;;;;;13.25;5.88;;;;;;;;;;5036446;28;20083;-75
2023/03/22 11:43:32;;;;;;;11.80;5.93;;;;;;;;;;5054313;28;20077;-75
2023/03/22 11:45:59;;;;;;;13.45;5.90;;;;;;;;;;5036662;28;20037;-75
2023/03/22 11:48:27;;;;;;;12.27;6.10;;;;;;;;;;5054142;28;20072;-75
2023/03/22 11:50:54;;;;;;;15.20;6.00;;;;;;;;;;5054164;28;20060;-75
2023/03/22 11:53:22;;;;;;;11.43;5.47;;;;;;;;;;5054102;28;20041;-75
2023/03/22 11:55:49;;;;;;;10.73;5.07;;;;;;;;;;5054228;28;20041;-75
2023/03/22 11:58:25;;;;;;;9.98;5.20;;;;;;;;;;5036065;28;20056;-75
2023/03/22 12:00:53;;;;;;;11.13;5.30;;;;;;;;;;5036358;28;20044;-74
2023/03/22 12:03:21;;;;;;;7.93;5.07;;;;;;;;;;5019288;28;20041;-74
2023/03/22 12:05:48;;;;;;;11.10;5.15;;;;;;;;;;5036394;28;20547;-74
2023/03/22 12:08:24;;;;;;;12.15;5.13;;;;;;;;;;5036186;28;20552;-74
2023/03/22 12:11:00;;;;;;;11.65;4.85;;;;;;;;;;5053776;28;20402;-74
2023/03/22 12:13:38;;;;;;;10.20;4.93;;;;;;;;;;5035776;28;20052;-74
2023/03/22 12:16:05;;;;;;;22.30;5.38;;;;;;;;;;5036036;28;20041;-74
2023/03/22 12:18:38;;;;;;;10.23;4.65;;;;;;;;;;5036167;28;20094;-74
2023/03/22 12:21:04;;;;;;;9.77;4.30;;;;;;;;;;5053760;28;20052;-74
2023/03/22 12:23:33;;;;;;;11.77;4.60;;;;;;;;;;5035811;28;20045;-75
2023/03/22 12:26:01;;;;;;;12.18;5.10;;;;;;;;;;5053568;28;20128;-74
2023/03/22 12:28:31;;;;;;;9.85;4.80;;;;;;;;;;5019557;28;20084;-74
2023/03/22 12:30:58;;;;;;;8.82;4.40;;;;;;;;;;5053690;28;20537;-74
2023/03/22 12:33:26;;;;;;;5.95;4.13;;;;;;;;;;5034455;28;20132;-74
2023/03/22 12:35:56;;;;;;;7.75;4.50;;;;;;;;;;5018889;28;20048;-73
2023/03/22 12:38:34;;;;;;;12.10;5.20;;;;;;;;;;5027982;28;20048;-74
2023/03/22 12:41:02;;;;;;;9.13;4.90;;;;;;;;;;5053311;28;20120;-77
2023/03/22 12:43:37;;;;;;;9.82;5.00;;;;;;;;;;5053230;28;20080;-74
2023/03/22 12:46:05;;;;;;;9.60;5.13;;;;;;;;;;5053419;28;20045;-74
2023/03/22 12:48:39;;;;;;;9.00;5.30;;;;;;;;;;5035594;28;20052;-73
2023/03/22 12:51:06;;;;;;;13.48;6.10;;;;;;;;;;5035147;28;20163;-73
2023/03/22 12:53:41;;;;;;;11.27;5.93;;;;;;;;;;5053110;28;20132;-76
2023/03/22 12:56:17;;;;;;;17.20;6.32;;;;;;;;;;5051749;28;20053;-74
2023/03/22 12:58:49;;;;;;;12.10;6.32;;;;;;;;;;5053158;28;20421;-74
2023/03/22 13:01:29;;;;;;;11.27;6.10;;;;;;;;;;5051773;28;20099;-74
2023/03/22 13:03:56;;;;;;;10.75;6.35;;;;;;;;;;5034836;28;20505;-74
2023/03/22 13:06:40;;;;;;;15.57;6.85;;;;;;;;;;5052739;28;20285;-77
2023/03/22 13:09:15;;;;;;;12.38;6.63;;;;;;;;;;5051349;28;20056;-74
2023/03/22 13:11:42;;;;;;;15.07;7.00;;;;;;;;;;5051914;28;20041;-74
2023/03/22 13:14:11;;;;;;;11.95;7.00;;;;;;;;;;5052735;28;20060;-74
2023/03/22 13:16:47;;;;;;;12.82;6.70;;;;;;;;;;5052740;28;20098;-74
2023/03/22 13:19:25;;;;;;;12.25;7.18;;;;;;;;;;5016391;28;20087;-74
2023/03/22 13:22:11;;;;;;;11.07;7.22;;;;;;;;;;5049685;28;20498;-75
2023/03/22 13:24:57;;;;;;;13.68;7.47;;;;;;;;;;5033712;28;20087;-76
2023/03/22 13:27:23;;;;;;;11.77;7.47;;;;;;;;;;5052746;28;20040;-75
2023/03/22 13:29:52;;;;;;;14.43;7.10;;;;;;;;;;5052453;28;20147;-76
2023/03/22 13:32:27;;;;;;;13.00;7.70;;;;;;;;;;5052819;28;20083;-76
2023/03/22 13:34:53;;;;;;;10.90;7.45;;;;;;;;;;5051561;28;20371;-75
2023/03/22 13:37:37;;;;;;;14.15;7.43;;;;;;;;;;5034441;28;20044;-76
2023/03/22 13:40:26;;;;;;;12.85;7.75;;;;;;;;;;5052007;28;20047;-76
2023/03/22 13:42:52;;;;;;;11.10;7.30;;;;;;;;;;5051130;28;20053;-76
2023/03/22 13:45:32;;;;;;;13.93;7.82;;;;;;;;;;5052334;28;20041;-76
2023/03/22 13:48:09;;;;;;;10.77;7.50;;;;;;;;;;5052245;28;20045;-74
2023/03/22 13:50:36;;;;;;;11.90;7.70;;;;;;;;;;5050705;28;20052;-74
2023/03/22 13:53:05;;;;;;;14.15;7.55;;;;;;;;;;5033893;28;20048;-74
2023/03/22 13:55:46;;;;;;;14.57;8.52;;;;;;;;;;5052135;28;20045;-74
2023/03/22 13:58:37;;;;;;;14.05;7.97;;;;;;;;;;5052168;28;20045;-75
2023/03/22 14:01:06;;;;;;;13.73;8.45;;;;;;;;;;5034126;28;20041;-74
2023/03/22 14:03:37;;;;;;;15.50;8.27;;;;;;;;;;5052021;28;20071;-74
2023/03/22 14:06:21;;;;;;;12.27;8.23;;;;;;;;;;5034236;28;20347;-74
2023/03/22 14:08:50;;;;;;;12.93;8.30;;;;;;;;;;5051720;28;20060;-75
2023/03/22 14:11:20;;;;;;;11.43;8.35;;;;;;;;;;5032999;28;20082;-74
2023/03/22 14:13:50;;;;;;;15.68;8.35;;;;;;;;;;5051905;28;20056;-74
2023/03/22 14:16:31;;;;;;;13.52;9.02;;;;;;;;;;5033989;28;20079;-75
2023/03/22 14:18:57;;;;;;;13.82;8.45;;;;;;;;;;5051388;28;20504;-74
2023/03/22 14:21:28;;;;;;;13.23;8.75;;;;;;;;;;5053893;28;20041;-75
2023/03/22 14:23:55;;;;;;;15.85;9.18;;;;;;;;;;5055736;28;20041;-75
2023/03/22 14:26:32;;;;;;;15.20;8.80;;;;;;;;;;5038544;28;20153;-75
2023/03/22 14:29:16;;;;;;;15.20;9.18;;;;;;;;;;5037641;28;20049;-75
2023/03/22 14:31:42;;;;;;;16.70;9.00;;;;;;;;;;5055947;28;20433;-75
2023/03/22 14:34:11;;;;;;;13.90;9.20;;;;;;;;;;5055595;28;20537;-75
2023/03/22 14:36:40;;;;;;;10.25;8.60;;;;;;;;;;5055882;28;20045;-75
2023/03/22 14:39:19;;;;;;;12.30;8.70;;;;;;;;;;5055297;28;20053;-75
2023/03/22 14:41:59;;;;;;;17.90;9.25;;;;;;;;;;5055461;28;20084;-77